createdAt,value
2018-10-07T00:00:21.506Z,13.00
2018-10-07T00:02:49.951Z,13.00
2018-10-07T00:05:18.432Z,12.90
2018-10-07T00:07:46.894Z,13.00
2018-10-07T00:10:15.404Z,13.00
2018-10-07T00:12:43.894Z,13.00
2018-10-07T00:15:12.356Z,13.10
2018-10-07T00:17:40.862Z,12.90
2018-10-07T00:20:09.404Z,13.50
2018-10-07T00:22:37.872Z,13.30
2018-10-07T00:25:06.406Z,13.40
2018-10-07T00:27:34.951Z,13.40
2018-10-07T00:30:03.465Z,13.40
2018-10-07T00:32:31.902Z,13.10
2018-10-07T00:35:00.375Z,13.20
2018-10-07T00:37:28.871Z,13.30
2018-10-07T00:39:57.337Z,13.30
2018-10-07T00:42:25.798Z,13.30
2018-10-07T00:44:54.394Z,13.40
2018-10-07T00:47:23.610Z,13.30
2018-10-07T00:49:52.128Z,13.50
2018-10-07T00:52:20.714Z,13.40
2018-10-07T00:54:49.276Z,13.40
2018-10-07T00:57:17.803Z,13.50
2018-10-07T00:59:46.324Z,13.30
2018-10-07T01:02:14.891Z,13.30
2018-10-07T01:04:43.389Z,13.40
2018-10-07T01:07:11.962Z,13.20
2018-10-07T01:09:40.530Z,13.40
2018-10-07T01:12:09.055Z,13.20
2018-10-07T01:14:37.633Z,13.30
2018-10-07T01:17:06.840Z,12.90
2018-10-07T01:19:35.376Z,13.20
2018-10-07T01:22:03.922Z,13.80
2018-10-07T01:24:32.484Z,13.30
2018-10-07T01:27:01.090Z,13.20
2018-10-07T01:29:29.643Z,13.10
2018-10-07T01:31:58.234Z,13.10
2018-10-07T01:34:26.823Z,13.10
2018-10-07T01:36:55.418Z,13.40
2018-10-07T01:39:23.987Z,13.30
2018-10-07T01:41:52.523Z,13.40
2018-10-07T01:44:21.076Z,13.50
2018-10-07T01:46:49.590Z,13.60
2018-10-07T01:49:18.066Z,13.50
2018-10-07T01:51:46.602Z,13.50
2018-10-07T01:56:43.311Z,13.50
2018-10-07T02:01:40.495Z,13.50
2018-10-07T02:04:08.969Z,13.50
2018-10-07T02:06:37.444Z,13.50
2018-10-07T02:09:07.944Z,13.00
2018-10-07T02:11:36.541Z,13.50
2018-10-07T02:14:05.168Z,13.50
2018-10-07T02:16:33.562Z,13.70
2018-10-07T02:19:02.444Z,13.60
2018-10-07T02:21:31.108Z,13.60
2018-10-07T02:23:59.571Z,13.60
2018-10-07T02:26:28.071Z,13.60
2018-10-07T02:28:56.576Z,13.70
2018-10-07T02:31:25.043Z,13.60
2018-10-07T02:33:53.556Z,13.60
2018-10-07T02:36:22.044Z,13.60
2018-10-07T02:38:50.506Z,13.60
2018-10-07T02:41:18.985Z,13.60
2018-10-07T02:43:48.937Z,13.60
2018-10-07T02:46:17.489Z,13.60
2018-10-07T02:48:46.004Z,13.70
2018-10-07T02:51:14.561Z,13.80
2018-10-07T02:53:43.090Z,13.60
2018-10-07T02:56:11.642Z,13.60
2018-10-07T02:58:40.225Z,13.70
2018-10-07T03:01:08.830Z,13.80
2018-10-07T03:03:37.488Z,13.60
2018-10-07T03:06:06.000Z,13.70
2018-10-07T03:08:34.861Z,13.80
2018-10-07T03:11:03.352Z,13.70
2018-10-07T03:13:31.864Z,13.90
2018-10-07T03:16:00.455Z,13.80
2018-10-07T03:18:28.989Z,13.80
2018-10-07T03:23:25.728Z,14.10
2018-10-07T03:25:54.190Z,13.90
2018-10-07T03:28:22.667Z,13.90
2018-10-07T03:30:51.173Z,14.10
2018-10-07T03:33:19.696Z,13.90
2018-10-07T03:35:48.173Z,14.10
2018-10-07T03:38:16.649Z,13.90
2018-10-07T03:40:45.110Z,14.00
2018-10-07T03:43:13.586Z,14.00
2018-10-07T03:45:42.148Z,14.00
2018-10-07T03:48:11.114Z,14.00
2018-10-07T03:50:39.650Z,13.90
2018-10-07T03:53:08.282Z,14.00
2018-10-07T03:55:36.806Z,14.00
2018-10-07T03:58:05.390Z,14.10
2018-10-07T04:00:34.055Z,14.10
2018-10-07T04:03:02.613Z,14.10
2018-10-07T04:05:31.113Z,14.20
2018-10-07T04:07:59.572Z,13.90
2018-10-07T04:10:28.014Z,14.00
2018-10-07T04:12:56.482Z,14.00
2018-10-07T04:15:24.962Z,14.00
2018-10-07T04:17:53.440Z,14.20
2018-10-07T04:20:21.916Z,14.00
2018-10-07T04:22:50.358Z,14.00
2018-10-07T04:25:18.832Z,13.90
2018-10-07T04:27:47.294Z,13.90
2018-10-07T04:30:16.102Z,13.90
2018-10-07T04:32:45.770Z,14.00
2018-10-07T04:35:14.993Z,14.10
2018-10-07T04:37:44.077Z,14.00
2018-10-07T04:40:13.154Z,14.20
2018-10-07T04:42:41.632Z,14.10
2018-10-07T04:45:10.090Z,14.10
2018-10-07T04:47:38.570Z,14.10
2018-10-07T04:50:07.192Z,14.00
2018-10-07T04:55:03.866Z,14.00
2018-10-07T04:57:32.436Z,14.10
2018-10-07T05:02:29.154Z,14.00
2018-10-07T05:04:57.816Z,14.00
2018-10-07T05:07:26.403Z,14.00
2018-10-07T05:10:06.209Z,14.00
2018-10-07T05:12:34.899Z,14.00
2018-10-07T05:15:03.529Z,13.90
2018-10-07T05:17:32.436Z,14.00
2018-10-07T05:20:00.967Z,14.00
2018-10-07T05:22:29.550Z,14.00
2018-10-07T05:24:58.128Z,14.00
2018-10-07T05:27:26.694Z,14.00
2018-10-07T05:29:55.230Z,13.90
2018-10-07T05:32:23.756Z,14.10
2018-10-07T05:34:52.364Z,13.90
2018-10-07T05:37:21.071Z,13.90
2018-10-07T05:39:49.532Z,14.00
2018-10-07T05:42:18.009Z,14.00
2018-10-07T05:44:46.485Z,14.10
2018-10-07T05:47:14.937Z,14.20
2018-10-07T05:49:43.395Z,14.00
2018-10-07T05:52:11.868Z,14.10
2018-10-07T05:54:40.455Z,14.10
2018-10-07T05:57:08.967Z,14.10
2018-10-07T05:59:37.509Z,14.20
2018-10-07T06:02:07.227Z,14.10
2018-10-07T06:04:52.777Z,14.20
2018-10-07T06:07:21.906Z,14.20
2018-10-07T06:09:50.415Z,14.20
2018-10-07T06:12:18.957Z,14.10
2018-10-07T06:14:58.869Z,14.10
2018-10-07T06:17:27.325Z,14.00
2018-10-07T06:19:55.840Z,14.00
2018-10-07T06:22:24.740Z,14.00
2018-10-07T06:24:53.235Z,14.00
2018-10-07T06:27:21.753Z,14.20
2018-10-07T06:29:50.326Z,14.20
2018-10-07T06:32:18.778Z,13.80
2018-10-07T06:34:47.268Z,14.20
2018-10-07T06:37:15.763Z,14.20
2018-10-07T06:39:44.328Z,14.20
2018-10-07T06:42:12.836Z,14.10
2018-10-07T06:44:41.311Z,14.20
2018-10-07T06:47:09.859Z,14.20
2018-10-07T06:49:38.376Z,14.90
2018-10-07T06:52:06.873Z,14.20
2018-10-07T06:57:03.551Z,14.20
2018-10-07T06:59:32.064Z,14.20
2018-10-07T07:02:00.618Z,14.20
2018-10-07T07:04:29.175Z,14.10
2018-10-07T07:06:57.638Z,14.30
2018-10-07T07:09:26.174Z,14.30
2018-10-07T07:14:22.831Z,14.40
2018-10-07T07:16:51.315Z,14.20
2018-10-07T07:19:19.855Z,14.40
2018-10-07T07:21:48.404Z,14.30
2018-10-07T07:24:16.879Z,14.50
2018-10-07T07:26:45.376Z,14.80
2018-10-07T07:29:13.850Z,14.70
2018-10-07T07:31:42.338Z,14.50
2018-10-07T07:34:10.844Z,14.50
2018-10-07T07:36:39.320Z,14.60
2018-10-07T07:39:08.710Z,14.50
2018-10-07T07:41:37.248Z,14.50
2018-10-07T07:46:33.938Z,14.70
2018-10-07T07:49:02.471Z,14.80
2018-10-07T07:51:30.964Z,14.60
2018-10-07T07:56:27.684Z,14.70
2018-10-07T07:58:56.178Z,14.80
2018-10-07T08:01:24.722Z,14.90
2018-10-07T08:03:53.310Z,14.90
2018-10-07T08:06:21.789Z,15.00
2018-10-07T08:08:50.410Z,14.90
2018-10-07T08:11:18.914Z,15.00
2018-10-07T08:13:47.430Z,15.00
2018-10-07T08:16:16.020Z,15.00
2018-10-07T08:18:44.649Z,15.10
2018-10-07T08:21:13.166Z,15.10
2018-10-07T08:23:42.115Z,15.30
2018-10-07T08:26:10.680Z,15.30
2018-10-07T08:28:39.403Z,15.40
2018-10-07T08:31:07.957Z,15.60
2018-10-07T08:33:36.517Z,15.60
2018-10-07T08:36:05.081Z,15.70
2018-10-07T08:38:33.710Z,15.50
2018-10-07T08:41:02.242Z,15.60
2018-10-07T08:43:30.771Z,15.70
2018-10-07T08:45:59.328Z,15.70
2018-10-07T08:48:27.871Z,15.70
2018-10-07T08:50:56.426Z,15.50
2018-10-07T08:53:25.050Z,15.60
2018-10-07T08:55:53.575Z,15.70
2018-10-07T08:58:22.132Z,15.70
2018-10-07T09:00:50.745Z,15.70
2018-10-07T09:03:19.708Z,15.90
2018-10-07T09:05:48.293Z,15.90
2018-10-07T09:08:16.884Z,16.00
2018-10-07T09:10:45.429Z,16.10
2018-10-07T09:13:13.979Z,16.10
2018-10-07T09:15:42.634Z,16.00
2018-10-07T09:18:11.237Z,16.10
2018-10-07T09:23:08.118Z,16.40
2018-10-07T09:25:36.698Z,16.70
2018-10-07T09:28:05.333Z,16.80
2018-10-07T09:30:35.519Z,16.60
2018-10-07T09:33:04.151Z,16.80
2018-10-07T09:35:33.614Z,16.60
2018-10-07T09:38:02.838Z,16.80
2018-10-07T09:40:31.400Z,16.70
2018-10-07T09:42:59.985Z,16.90
2018-10-07T09:45:28.605Z,16.70
2018-10-07T09:47:57.299Z,17.00
2018-10-07T09:50:25.889Z,16.90
2018-10-07T09:52:55.109Z,16.80
2018-10-07T09:55:23.939Z,16.90
2018-10-07T09:57:52.948Z,17.00
2018-10-07T10:00:26.797Z,17.10
2018-10-07T10:02:55.424Z,16.70
2018-10-07T10:05:24.668Z,17.00
2018-10-07T10:07:53.235Z,16.90
2018-10-07T10:10:21.977Z,17.00
2018-10-07T10:12:50.591Z,17.00
2018-10-07T10:15:19.209Z,16.90
2018-10-07T10:17:51.014Z,16.80
2018-10-07T10:23:07.899Z,16.80
2018-10-07T10:25:58.315Z,16.90
2018-10-07T10:29:32.309Z,17.00
2018-10-07T10:32:10.880Z,17.20
2018-10-07T10:37:00.048Z,17.00
2018-10-07T10:40:01.173Z,17.20
2018-10-07T10:45:22.501Z,17.40
2018-10-07T10:47:53.905Z,17.50
2018-10-07T10:50:45.467Z,17.40
2018-10-07T10:53:21.822Z,17.60
2018-10-07T10:55:59.127Z,17.60
2018-10-07T10:58:36.597Z,17.80
2018-10-07T11:01:14.845Z,17.80
2018-10-07T11:04:12.338Z,18.20
2018-10-07T11:09:26.726Z,18.10
2018-10-07T11:12:01.298Z,18.70
2018-10-07T11:17:45.475Z,18.70
2018-10-07T11:20:21.583Z,18.80
2018-10-07T11:25:03.531Z,18.90
2018-10-07T11:27:40.598Z,18.80
2018-10-07T11:30:32.204Z,18.60
2018-10-07T11:35:22.100Z,18.80
2018-10-07T11:40:32.844Z,18.30
2018-10-07T11:43:09.454Z,18.40
2018-10-07T11:45:45.230Z,18.50
2018-10-07T11:49:22.508Z,18.10
2018-10-07T11:52:00.332Z,18.10
2018-10-07T11:54:40.134Z,17.90
2018-10-07T11:57:08.768Z,18.00
2018-10-07T11:59:37.418Z,18.10
2018-10-07T12:02:05.840Z,18.00
2018-10-07T12:04:34.469Z,18.10
2018-10-07T12:07:03.124Z,18.00
2018-10-07T12:09:31.887Z,17.90
2018-10-07T12:12:01.047Z,17.90
2018-10-07T12:14:30.026Z,17.80
2018-10-07T12:16:59.124Z,17.60
2018-10-07T12:19:27.734Z,17.70
2018-10-07T12:21:56.370Z,17.80
2018-10-07T12:24:26.073Z,17.90
2018-10-07T12:26:55.399Z,18.00
2018-10-07T12:29:24.209Z,17.80
2018-10-07T12:31:52.819Z,18.00
2018-10-07T12:34:21.819Z,17.70
2018-10-07T12:36:50.541Z,18.00
2018-10-07T12:39:19.644Z,17.90
2018-10-07T12:41:48.652Z,17.90
2018-10-07T12:44:18.162Z,18.00
2018-10-07T12:46:47.299Z,17.70
2018-10-07T12:49:16.460Z,17.60
2018-10-07T12:51:45.802Z,17.70
2018-10-07T12:54:14.553Z,17.60
2018-10-07T12:56:43.791Z,17.60
2018-10-07T12:59:13.548Z,17.60
2018-10-07T13:01:43.131Z,17.70
2018-10-07T13:04:11.737Z,17.70
2018-10-07T13:06:41.163Z,17.80
2018-10-07T13:09:12.247Z,17.80
2018-10-07T13:11:41.608Z,17.90
2018-10-07T13:14:10.867Z,17.90
2018-10-07T13:16:41.797Z,17.90
2018-10-07T13:19:11.175Z,17.70
2018-10-07T13:21:41.007Z,17.70
2018-10-07T13:24:09.660Z,17.70
2018-10-07T13:26:40.688Z,17.90
2018-10-07T13:29:09.326Z,17.60
2018-10-07T13:31:37.937Z,17.70
2018-10-07T13:34:06.616Z,17.90
2018-10-07T13:36:36.100Z,18.30
2018-10-07T13:39:07.965Z,17.90
2018-10-07T13:41:36.611Z,18.10
2018-10-07T13:44:05.248Z,18.00
2018-10-07T13:46:34.888Z,18.00
2018-10-07T13:49:04.409Z,18.00
2018-10-07T13:51:33.037Z,18.00
2018-10-07T13:54:02.099Z,18.00
2018-10-07T13:56:31.468Z,18.20
2018-10-07T13:59:00.091Z,18.30
2018-10-07T14:01:28.681Z,17.90
2018-10-07T14:03:57.342Z,18.20
2018-10-07T14:06:26.219Z,18.20
2018-10-07T14:08:54.859Z,18.10
2018-10-07T14:11:23.766Z,18.10
2018-10-07T14:13:53.243Z,18.00
2018-10-07T14:16:21.988Z,18.00
2018-10-07T14:18:50.620Z,18.20
2018-10-07T14:21:19.753Z,18.00
2018-10-07T14:23:49.388Z,18.00
2018-10-07T14:26:18.623Z,18.00
2018-10-07T14:28:47.543Z,18.00
2018-10-07T14:33:44.812Z,18.00
2018-10-07T14:36:13.573Z,17.80
2018-10-07T14:38:42.537Z,18.00
2018-10-07T14:41:11.176Z,18.00
2018-10-07T14:43:40.175Z,18.00
2018-10-07T14:46:09.180Z,17.90
2018-10-07T14:48:37.920Z,17.80
2018-10-07T14:51:07.480Z,17.70
2018-10-07T14:53:36.866Z,17.70
2018-10-07T14:56:05.847Z,17.70
2018-10-07T14:58:34.497Z,17.70
2018-10-07T15:01:03.266Z,17.60
2018-10-07T15:03:31.900Z,17.60
2018-10-07T15:06:00.980Z,17.60
2018-10-07T15:08:30.895Z,17.70
2018-10-07T15:11:00.125Z,17.70
2018-10-07T15:13:28.793Z,17.80
2018-10-07T15:15:57.464Z,17.90
2018-10-07T15:18:26.793Z,17.80
2018-10-07T15:20:55.706Z,17.70
2018-10-07T15:23:25.568Z,17.80
2018-10-07T15:25:54.949Z,17.60
2018-10-07T15:28:23.637Z,17.60
2018-10-07T15:30:53.801Z,17.60
2018-10-07T15:35:50.810Z,17.40
2018-10-07T15:38:21.084Z,17.50
2018-10-07T15:40:49.775Z,17.30
2018-10-07T15:45:47.526Z,17.50
2018-10-07T15:48:16.809Z,17.40
2018-10-07T15:50:46.172Z,17.40
2018-10-07T15:53:14.889Z,17.30
2018-10-07T15:55:44.925Z,17.10
2018-10-07T15:58:15.145Z,17.10
2018-10-07T16:00:44.444Z,17.40
2018-10-07T16:03:13.880Z,17.40
2018-10-07T16:05:42.526Z,17.10
2018-10-07T16:08:12.002Z,17.20
2018-10-07T16:10:40.896Z,17.30
2018-10-07T16:13:10.380Z,17.30
2018-10-07T16:15:39.096Z,17.30
2018-10-07T16:18:08.622Z,16.90
2018-10-07T16:20:38.007Z,16.80
2018-10-07T16:23:06.748Z,17.10
2018-10-07T16:25:35.526Z,17.30
2018-10-07T16:30:32.796Z,17.40
2018-10-07T16:33:02.988Z,16.90
2018-10-07T16:35:32.105Z,16.80
2018-10-07T16:38:02.389Z,17.00
2018-10-07T16:40:31.292Z,16.90
2018-10-07T16:42:59.889Z,16.90
2018-10-07T16:45:29.498Z,17.00
2018-10-07T16:50:27.218Z,17.00
2018-10-07T16:52:57.921Z,16.90
2018-10-07T16:55:26.628Z,16.90
2018-10-07T16:57:55.330Z,16.50
2018-10-07T17:02:52.302Z,16.70
2018-10-07T17:05:22.199Z,16.80
2018-10-07T17:07:52.468Z,16.50
2018-10-07T17:10:21.421Z,16.30
2018-10-07T17:12:54.616Z,16.80
2018-10-07T17:15:23.335Z,16.70
2018-10-07T17:17:54.077Z,16.20
2018-10-07T17:20:23.095Z,16.40
2018-10-07T17:22:52.581Z,16.50
2018-10-07T17:25:21.927Z,16.50
2018-10-07T17:30:18.864Z,16.60
2018-10-07T17:32:48.861Z,15.70
2018-10-07T17:37:45.959Z,16.20
2018-10-07T17:40:16.804Z,16.20
2018-10-07T17:42:46.613Z,16.20
2018-10-07T17:45:15.911Z,16.20
2018-10-07T17:47:44.745Z,16.10
2018-10-07T17:50:13.994Z,16.00
2018-10-07T17:52:42.777Z,16.20
2018-10-07T17:55:11.416Z,16.50
2018-10-07T17:57:40.358Z,16.20
2018-10-07T18:00:09.192Z,16.10
2018-10-07T18:02:37.877Z,15.90
2018-10-07T18:05:09.411Z,16.00
2018-10-07T18:07:38.647Z,16.10
2018-10-07T18:10:07.364Z,16.00
2018-10-07T18:15:05.991Z,15.90
2018-10-07T18:17:34.852Z,16.80
2018-10-07T18:20:05.061Z,15.90
2018-10-07T18:22:34.799Z,16.20
2018-10-07T18:27:34.979Z,15.60
2018-10-07T18:30:04.640Z,15.70
2018-10-07T18:32:34.221Z,15.70
2018-10-07T18:37:32.921Z,15.60
2018-10-07T18:40:02.573Z,15.60
2018-10-07T18:45:03.770Z,15.60
2018-10-07T18:47:33.138Z,15.60
2018-10-07T18:50:02.294Z,15.40
2018-10-07T18:52:33.191Z,14.90
2018-10-07T18:55:04.030Z,15.30
2018-10-07T18:57:32.654Z,15.60
2018-10-07T19:02:29.696Z,15.20
2018-10-07T19:05:00.077Z,14.90
2018-10-07T19:07:29.283Z,15.10
2018-10-07T19:09:57.935Z,15.00
2018-10-07T19:12:26.572Z,15.30
2018-10-07T19:14:55.167Z,15.00
2018-10-07T19:17:24.250Z,15.00
2018-10-07T19:19:52.859Z,14.70
2018-10-07T19:22:22.183Z,14.90
2018-10-07T19:27:23.561Z,15.10
2018-10-07T19:29:52.392Z,15.00
2018-10-07T19:32:22.991Z,15.20
2018-10-07T19:34:51.744Z,15.10
2018-10-07T19:37:20.460Z,15.20
2018-10-07T19:39:49.706Z,15.50
2018-10-07T19:42:20.263Z,15.20
2018-10-07T19:44:50.656Z,15.70
2018-10-07T19:47:19.229Z,15.30
2018-10-07T19:49:48.866Z,15.00
2018-10-07T19:52:18.220Z,15.50
2018-10-07T19:54:49.608Z,15.30
2018-10-07T19:57:20.183Z,15.40
2018-10-07T19:59:49.129Z,15.30
2018-10-07T20:02:17.743Z,15.40
2018-10-07T20:04:48.612Z,14.60
2018-10-07T20:07:19.147Z,15.30
2018-10-07T20:09:50.905Z,15.20
2018-10-07T20:12:21.173Z,14.70
2018-10-07T20:17:19.361Z,15.00
2018-10-07T20:19:48.004Z,14.70
2018-10-07T20:22:17.569Z,14.90
2018-10-07T20:24:46.291Z,14.80
2018-10-07T20:27:14.984Z,15.00
2018-10-07T20:29:44.010Z,14.20
2018-10-07T20:32:12.669Z,14.50
2018-10-07T20:34:42.262Z,15.00
2018-10-07T20:37:11.291Z,14.80
2018-10-07T20:39:39.913Z,14.60
2018-10-07T20:42:08.660Z,14.60
2018-10-07T20:44:38.047Z,14.70
2018-10-07T20:47:08.696Z,14.50
2018-10-07T20:52:06.150Z,14.70
2018-10-07T20:54:35.007Z,14.70
2018-10-07T20:57:03.710Z,14.70
2018-10-07T21:04:28.965Z,14.40
2018-10-07T21:06:57.597Z,14.30
2018-10-07T21:09:26.219Z,14.10
2018-10-07T21:11:56.269Z,14.30
2018-10-07T21:16:53.139Z,14.50
2018-10-07T21:19:21.700Z,14.20
2018-10-07T21:21:50.280Z,14.10
2018-10-07T21:24:18.847Z,14.30
2018-10-07T21:26:47.455Z,14.50
2018-10-07T21:29:15.978Z,14.30
2018-10-07T21:31:44.593Z,14.50
2018-10-07T21:34:13.154Z,14.60
2018-10-07T21:36:41.771Z,14.40
2018-10-07T21:39:11.097Z,14.50
2018-10-07T21:41:39.769Z,14.50
2018-10-07T21:44:08.579Z,14.40
2018-10-07T21:46:37.959Z,14.50
2018-10-07T21:49:07.115Z,14.50
2018-10-07T21:51:35.663Z,14.50
2018-10-07T21:54:04.458Z,14.40
2018-10-07T21:56:33.842Z,14.50
2018-10-07T21:59:02.385Z,14.30
2018-10-07T22:01:31.001Z,14.90
2018-10-07T22:03:59.585Z,14.50
2018-10-07T22:06:28.078Z,14.50
2018-10-07T22:08:56.587Z,14.50
2018-10-07T22:11:25.091Z,14.40
2018-10-07T22:13:53.614Z,14.50
2018-10-07T22:18:50.451Z,14.50
2018-10-07T22:21:18.979Z,14.60
2018-10-07T22:23:47.499Z,14.80
2018-10-07T22:26:15.989Z,14.80
2018-10-07T22:28:44.461Z,14.60
2018-10-07T22:31:12.955Z,14.60
2018-10-07T22:36:10.497Z,15.00
2018-10-07T22:38:39.046Z,14.70
2018-10-07T22:41:07.543Z,15.10
2018-10-07T22:43:36.021Z,14.70
2018-10-07T22:46:04.515Z,14.80
2018-10-07T22:48:33.033Z,15.10
2018-10-07T22:51:01.521Z,14.80
2018-10-07T22:53:30.012Z,14.90
2018-10-07T22:55:58.547Z,15.00
2018-10-07T22:58:27.121Z,14.50
2018-10-07T23:00:55.609Z,14.90
2018-10-07T23:03:24.167Z,14.80
2018-10-07T23:05:52.687Z,14.70
2018-10-07T23:08:21.175Z,14.50
2018-10-07T23:10:49.669Z,14.80
2018-10-07T23:13:18.161Z,14.80
2018-10-07T23:15:46.698Z,14.80
2018-10-07T23:18:15.179Z,14.80
2018-10-07T23:20:43.666Z,14.80
2018-10-07T23:23:12.154Z,14.60
2018-10-07T23:25:40.614Z,14.70
2018-10-07T23:28:09.099Z,14.70
2018-10-07T23:30:37.587Z,15.20
2018-10-07T23:33:06.112Z,14.80
2018-10-07T23:35:34.682Z,15.00
2018-10-07T23:38:03.183Z,15.00
2018-10-07T23:40:32.098Z,14.70
2018-10-07T23:43:00.590Z,15.10
2018-10-07T23:45:29.150Z,14.80
2018-10-07T23:47:57.587Z,14.80
2018-10-07T23:50:26.123Z,14.90
2018-10-07T23:52:54.673Z,15.00
2018-10-07T23:55:23.202Z,15.00
2018-10-07T23:57:51.730Z,14.80
